sensor_id;sensor_type;location;lat;lon;timestamp;P1;durP1;ratioP1;P2;durP2;ratioP2
20705;SDS011;10514;49.468;11.044;2023-02-21T00:00:59;4.67;;;2.67;;
20705;SDS011;10514;49.468;11.044;2023-02-21T00:03:43;9.33;;;1.93;;
20705;SDS011;10514;49.468;11.044;2023-02-21T00:06:27;4.63;;;2.27;;
20705;SDS011;10514;49.468;11.044;2023-02-21T00:09:12;5.27;;;2.20;;
20705;SDS011;10514;49.468;11.044;2023-02-21T00:11:57;5.80;;;1.90;;
20705;SDS011;10514;49.468;11.044;2023-02-21T00:14:41;4.27;;;1.97;;
20705;SDS011;10514;49.468;11.044;2023-02-21T00:17:26;3.87;;;1.93;;
20705;SDS011;10514;49.468;11.044;2023-02-21T00:20:10;4.40;;;1.80;;
20705;SDS011;10514;49.468;11.044;2023-02-21T00:22:55;4.17;;;2.07;;
20705;SDS011;10514;49.468;11.044;2023-02-21T00:25:39;6.47;;;1.83;;
20705;SDS011;10514;49.468;11.044;2023-02-21T00:28:24;4.67;;;1.90;;
20705;SDS011;10514;49.468;11.044;2023-02-21T00:31:09;4.53;;;2.00;;
20705;SDS011;10514;49.468;11.044;2023-02-21T00:33:54;4.13;;;2.07;;
20705;SDS011;10514;49.468;11.044;2023-02-21T00:36:38;9.77;;;2.57;;
20705;SDS011;10514;49.468;11.044;2023-02-21T00:39:23;4.53;;;2.17;;
20705;SDS011;10514;49.468;11.044;2023-02-21T00:42:07;3.97;;;1.87;;
20705;SDS011;10514;49.468;11.044;2023-02-21T00:44:52;4.93;;;2.13;;
20705;SDS011;10514;49.468;11.044;2023-02-21T00:47:36;6.30;;;2.20;;
20705;SDS011;10514;49.468;11.044;2023-02-21T00:50:21;4.37;;;2.07;;
20705;SDS011;10514;49.468;11.044;2023-02-21T00:53:06;5.73;;;2.37;;
20705;SDS011;10514;49.468;11.044;2023-02-21T00:55:50;6.10;;;2.53;;
20705;SDS011;10514;49.468;11.044;2023-02-21T00:58:35;4.40;;;1.93;;
20705;SDS011;10514;49.468;11.044;2023-02-21T01:01:19;6.57;;;2.00;;
20705;SDS011;10514;49.468;11.044;2023-02-21T01:04:04;5.87;;;1.80;;
20705;SDS011;10514;49.468;11.044;2023-02-21T01:06:51;5.43;;;1.87;;
20705;SDS011;10514;49.468;11.044;2023-02-21T01:09:36;6.03;;;2.03;;
20705;SDS011;10514;49.468;11.044;2023-02-21T01:12:21;5.20;;;2.10;;
20705;SDS011;10514;49.468;11.044;2023-02-21T01:15:05;4.60;;;2.03;;
20705;SDS011;10514;49.468;11.044;2023-02-21T01:17:50;7.33;;;2.60;;
20705;SDS011;10514;49.468;11.044;2023-02-21T01:20:34;5.37;;;2.33;;
20705;SDS011;10514;49.468;11.044;2023-02-21T01:23:19;3.57;;;2.23;;
20705;SDS011;10514;49.468;11.044;2023-02-21T01:26:04;7.93;;;2.20;;
20705;SDS011;10514;49.468;11.044;2023-02-21T01:28:48;5.80;;;2.30;;
20705;SDS011;10514;49.468;11.044;2023-02-21T01:31:33;10.43;;;2.40;;
20705;SDS011;10514;49.468;11.044;2023-02-21T01:34:17;8.53;;;2.00;;
20705;SDS011;10514;49.468;11.044;2023-02-21T01:37:02;5.33;;;2.23;;
20705;SDS011;10514;49.468;11.044;2023-02-21T01:39:46;10.40;;;2.87;;
20705;SDS011;10514;49.468;11.044;2023-02-21T01:42:31;5.27;;;2.07;;
20705;SDS011;10514;49.468;11.044;2023-02-21T01:48:09;3.73;;;1.80;;
20705;SDS011;10514;49.468;11.044;2023-02-21T01:50:55;4.40;;;2.10;;
20705;SDS011;10514;49.468;11.044;2023-02-21T01:53:40;4.53;;;2.50;;
20705;SDS011;10514;49.468;11.044;2023-02-21T01:56:25;6.63;;;2.50;;
20705;SDS011;10514;49.468;11.044;2023-02-21T01:59:09;4.97;;;2.17;;
20705;SDS011;10514;49.468;11.044;2023-02-21T02:02:06;6.00;;;2.80;;
20705;SDS011;10514;49.468;11.044;2023-02-21T02:04:55;5.80;;;1.90;;
20705;SDS011;10514;49.468;11.044;2023-02-21T02:07:40;4.80;;;2.30;;
20705;SDS011;10514;49.468;11.044;2023-02-21T02:10:26;8.27;;;2.40;;
20705;SDS011;10514;49.468;11.044;2023-02-21T02:15:44;6.17;;;2.63;;
20705;SDS011;10514;49.468;11.044;2023-02-21T02:18:37;3.33;;;1.93;;
20705;SDS011;10514;49.468;11.044;2023-02-21T02:26:33;3.77;;;2.40;;
20705;SDS011;10514;49.468;11.044;2023-02-21T02:34:36;9.97;;;3.33;;
20705;SDS011;10514;49.468;11.044;2023-02-21T02:37:42;7.33;;;3.27;;
20705;SDS011;10514;49.468;11.044;2023-02-21T02:45:03;3.80;;;2.67;;
20705;SDS011;10514;49.468;11.044;2023-02-21T02:47:37;9.07;;;2.60;;
20705;SDS011;10514;49.468;11.044;2023-02-21T02:50:04;6.77;;;2.93;;
20705;SDS011;10514;49.468;11.044;2023-02-21T02:52:31;10.20;;;3.10;;
20705;SDS011;10514;49.468;11.044;2023-02-21T02:54:58;5.73;;;2.70;;
20705;SDS011;10514;49.468;11.044;2023-02-21T02:57:24;8.27;;;3.30;;
20705;SDS011;10514;49.468;11.044;2023-02-21T02:59:50;6.67;;;2.57;;
20705;SDS011;10514;49.468;11.044;2023-02-21T03:02:33;8.13;;;2.97;;
20705;SDS011;10514;49.468;11.044;2023-02-21T03:05:19;5.73;;;2.77;;
20705;SDS011;10514;49.468;11.044;2023-02-21T03:10:53;6.93;;;2.90;;
20705;SDS011;10514;49.468;11.044;2023-02-21T03:16:15;8.10;;;2.57;;
20705;SDS011;10514;49.468;11.044;2023-02-21T03:18:45;6.43;;;2.83;;
20705;SDS011;10514;49.468;11.044;2023-02-21T03:21:14;8.90;;;3.20;;
20705;SDS011;10514;49.468;11.044;2023-02-21T03:23:41;6.17;;;3.00;;
20705;SDS011;10514;49.468;11.044;2023-02-21T03:26:10;5.90;;;2.53;;
20705;SDS011;10514;49.468;11.044;2023-02-21T03:28:38;10.73;;;2.77;;
20705;SDS011;10514;49.468;11.044;2023-02-21T03:31:04;9.70;;;3.33;;
20705;SDS011;10514;49.468;11.044;2023-02-21T03:33:32;5.67;;;3.17;;
20705;SDS011;10514;49.468;11.044;2023-02-21T03:35:58;18.17;;;3.37;;
20705;SDS011;10514;49.468;11.044;2023-02-21T03:38:28;6.97;;;3.27;;
20705;SDS011;10514;49.468;11.044;2023-02-21T03:40:54;7.10;;;2.70;;
20705;SDS011;10514;49.468;11.044;2023-02-21T03:43:20;9.27;;;3.00;;
20705;SDS011;10514;49.468;11.044;2023-02-21T03:45:47;9.60;;;3.40;;
20705;SDS011;10514;49.468;11.044;2023-02-21T03:48:13;4.77;;;2.77;;
20705;SDS011;10514;49.468;11.044;2023-02-21T03:50:39;12.50;;;3.67;;
20705;SDS011;10514;49.468;11.044;2023-02-21T03:53:05;7.03;;;3.37;;
20705;SDS011;10514;49.468;11.044;2023-02-21T03:55:31;8.10;;;2.97;;
20705;SDS011;10514;49.468;11.044;2023-02-21T03:57:57;7.83;;;2.87;;
20705;SDS011;10514;49.468;11.044;2023-02-21T04:00:23;6.70;;;3.63;;
20705;SDS011;10514;49.468;11.044;2023-02-21T04:02:49;11.33;;;3.30;;
20705;SDS011;10514;49.468;11.044;2023-02-21T04:05:15;8.63;;;2.63;;
20705;SDS011;10514;49.468;11.044;2023-02-21T04:07:41;9.47;;;2.50;;
20705;SDS011;10514;49.468;11.044;2023-02-21T04:10:07;7.33;;;3.27;;
20705;SDS011;10514;49.468;11.044;2023-02-21T04:12:33;7.83;;;3.20;;
20705;SDS011;10514;49.468;11.044;2023-02-21T04:14:59;7.50;;;3.07;;
20705;SDS011;10514;49.468;11.044;2023-02-21T04:17:25;8.10;;;3.47;;
20705;SDS011;10514;49.468;11.044;2023-02-21T04:19:51;6.60;;;2.73;;
20705;SDS011;10514;49.468;11.044;2023-02-21T04:22:17;9.90;;;4.03;;
20705;SDS011;10514;49.468;11.044;2023-02-21T04:24:43;7.50;;;2.80;;
20705;SDS011;10514;49.468;11.044;2023-02-21T04:27:09;4.37;;;2.73;;
20705;SDS011;10514;49.468;11.044;2023-02-21T04:29:35;9.23;;;2.77;;
20705;SDS011;10514;49.468;11.044;2023-02-21T04:32:01;7.43;;;2.37;;
20705;SDS011;10514;49.468;11.044;2023-02-21T04:34:27;7.07;;;2.90;;
20705;SDS011;10514;49.468;11.044;2023-02-21T04:36:53;8.97;;;3.20;;
20705;SDS011;10514;49.468;11.044;2023-02-21T04:39:18;6.73;;;2.93;;
20705;SDS011;10514;49.468;11.044;2023-02-21T04:41:44;7.73;;;2.87;;
20705;SDS011;10514;49.468;11.044;2023-02-21T04:44:10;5.60;;;3.13;;
20705;SDS011;10514;49.468;11.044;2023-02-21T04:46:36;6.57;;;2.87;;
20705;SDS011;10514;49.468;11.044;2023-02-21T04:49:02;9.13;;;2.93;;
20705;SDS011;10514;49.468;11.044;2023-02-21T04:51:28;7.60;;;3.33;;
20705;SDS011;10514;49.468;11.044;2023-02-21T04:53:54;9.30;;;2.97;;
20705;SDS011;10514;49.468;11.044;2023-02-21T04:56:22;8.63;;;3.23;;
20705;SDS011;10514;49.468;11.044;2023-02-21T04:58:49;8.57;;;3.00;;
20705;SDS011;10514;49.468;11.044;2023-02-21T05:01:16;4.60;;;2.70;;
20705;SDS011;10514;49.468;11.044;2023-02-21T05:03:43;5.00;;;3.20;;
20705;SDS011;10514;49.468;11.044;2023-02-21T05:06:09;9.07;;;2.73;;
20705;SDS011;10514;49.468;11.044;2023-02-21T05:08:35;12.67;;;3.07;;
20705;SDS011;10514;49.468;11.044;2023-02-21T05:11:01;6.53;;;3.20;;
20705;SDS011;10514;49.468;11.044;2023-02-21T05:13:27;6.33;;;2.70;;
20705;SDS011;10514;49.468;11.044;2023-02-21T05:15:53;9.17;;;2.93;;
20705;SDS011;10514;49.468;11.044;2023-02-21T05:18:19;6.63;;;3.13;;
20705;SDS011;10514;49.468;11.044;2023-02-21T05:20:52;6.83;;;3.30;;
20705;SDS011;10514;49.468;11.044;2023-02-21T05:23:19;6.70;;;3.20;;
20705;SDS011;10514;49.468;11.044;2023-02-21T05:25:57;6.00;;;2.50;;
20705;SDS011;10514;49.468;11.044;2023-02-21T05:28:23;9.03;;;3.27;;
20705;SDS011;10514;49.468;11.044;2023-02-21T05:30:49;6.77;;;3.17;;
20705;SDS011;10514;49.468;11.044;2023-02-21T05:33:15;9.87;;;4.37;;
20705;SDS011;10514;49.468;11.044;2023-02-21T05:35:41;5.80;;;2.73;;
20705;SDS011;10514;49.468;11.044;2023-02-21T05:38:07;6.33;;;2.90;;
20705;SDS011;10514;49.468;11.044;2023-02-21T05:40:33;12.17;;;4.00;;
20705;SDS011;10514;49.468;11.044;2023-02-21T05:42:58;7.63;;;3.03;;
20705;SDS011;10514;49.468;11.044;2023-02-21T05:45:24;9.57;;;3.30;;
20705;SDS011;10514;49.468;11.044;2023-02-21T05:47:50;7.83;;;3.60;;
20705;SDS011;10514;49.468;11.044;2023-02-21T05:50:20;12.40;;;3.23;;
20705;SDS011;10514;49.468;11.044;2023-02-21T05:52:46;7.73;;;3.70;;
20705;SDS011;10514;49.468;11.044;2023-02-21T05:55:12;11.87;;;4.17;;
20705;SDS011;10514;49.468;11.044;2023-02-21T05:57:38;11.13;;;3.93;;
20705;SDS011;10514;49.468;11.044;2023-02-21T06:00:04;9.03;;;3.50;;
20705;SDS011;10514;49.468;11.044;2023-02-21T06:02:30;8.70;;;3.90;;
20705;SDS011;10514;49.468;11.044;2023-02-21T06:04:56;7.23;;;3.33;;
20705;SDS011;10514;49.468;11.044;2023-02-21T06:07:22;8.17;;;4.20;;
20705;SDS011;10514;49.468;11.044;2023-02-21T06:09:48;7.90;;;3.10;;
20705;SDS011;10514;49.468;11.044;2023-02-21T06:12:13;7.77;;;3.50;;
20705;SDS011;10514;49.468;11.044;2023-02-21T06:14:39;5.87;;;3.53;;
20705;SDS011;10514;49.468;11.044;2023-02-21T06:17:05;6.27;;;3.80;;
20705;SDS011;10514;49.468;11.044;2023-02-21T06:19:31;10.23;;;3.70;;
20705;SDS011;10514;49.468;11.044;2023-02-21T06:21:57;12.63;;;3.50;;
20705;SDS011;10514;49.468;11.044;2023-02-21T06:24:23;7.27;;;3.50;;
20705;SDS011;10514;49.468;11.044;2023-02-21T06:26:49;7.53;;;3.93;;
20705;SDS011;10514;49.468;11.044;2023-02-21T06:29:15;6.97;;;3.60;;
20705;SDS011;10514;49.468;11.044;2023-02-21T06:31:41;14.60;;;4.73;;
20705;SDS011;10514;49.468;11.044;2023-02-21T06:34:07;13.57;;;3.50;;
20705;SDS011;10514;49.468;11.044;2023-02-21T06:36:32;8.67;;;3.60;;
20705;SDS011;10514;49.468;11.044;2023-02-21T06:38:59;10.47;;;4.00;;
20705;SDS011;10514;49.468;11.044;2023-02-21T06:41:26;10.50;;;3.93;;
20705;SDS011;10514;49.468;11.044;2023-02-21T06:43:53;8.93;;;3.73;;
20705;SDS011;10514;49.468;11.044;2023-02-21T06:46:20;7.97;;;3.37;;
20705;SDS011;10514;49.468;11.044;2023-02-21T06:48:46;8.87;;;4.23;;
20705;SDS011;10514;49.468;11.044;2023-02-21T06:51:12;7.33;;;4.17;;
20705;SDS011;10514;49.468;11.044;2023-02-21T06:53:39;12.30;;;4.03;;
20705;SDS011;10514;49.468;11.044;2023-02-21T06:56:05;11.67;;;4.60;;
20705;SDS011;10514;49.468;11.044;2023-02-21T06:58:31;8.07;;;4.00;;
20705;SDS011;10514;49.468;11.044;2023-02-21T07:00:57;6.90;;;4.37;;
20705;SDS011;10514;49.468;11.044;2023-02-21T07:03:23;8.80;;;4.20;;
20705;SDS011;10514;49.468;11.044;2023-02-21T07:05:49;11.43;;;4.63;;
20705;SDS011;10514;49.468;11.044;2023-02-21T07:08:15;12.73;;;4.77;;
20705;SDS011;10514;49.468;11.044;2023-02-21T07:10:41;12.17;;;4.73;;
20705;SDS011;10514;49.468;11.044;2023-02-21T07:13:07;12.30;;;4.57;;
20705;SDS011;10514;49.468;11.044;2023-02-21T07:15:33;8.27;;;4.37;;
20705;SDS011;10514;49.468;11.044;2023-02-21T07:17:59;10.07;;;5.40;;
20705;SDS011;10514;49.468;11.044;2023-02-21T07:20:25;10.60;;;5.07;;
20705;SDS011;10514;49.468;11.044;2023-02-21T07:22:51;10.57;;;4.43;;
20705;SDS011;10514;49.468;11.044;2023-02-21T07:25:17;9.70;;;4.93;;
20705;SDS011;10514;49.468;11.044;2023-02-21T07:27:45;11.70;;;4.73;;
20705;SDS011;10514;49.468;11.044;2023-02-21T07:30:11;11.43;;;4.70;;
20705;SDS011;10514;49.468;11.044;2023-02-21T07:32:37;13.17;;;4.50;;
20705;SDS011;10514;49.468;11.044;2023-02-21T07:35:04;9.97;;;4.87;;
20705;SDS011;10514;49.468;11.044;2023-02-21T07:37:30;13.77;;;4.47;;
20705;SDS011;10514;49.468;11.044;2023-02-21T07:39:56;12.87;;;5.40;;
20705;SDS011;10514;49.468;11.044;2023-02-21T07:42:22;9.70;;;4.17;;
20705;SDS011;10514;49.468;11.044;2023-02-21T07:44:47;8.10;;;4.40;;
20705;SDS011;10514;49.468;11.044;2023-02-21T07:47:13;15.57;;;5.03;;
20705;SDS011;10514;49.468;11.044;2023-02-21T07:49:42;10.03;;;4.00;;
20705;SDS011;10514;49.468;11.044;2023-02-21T07:52:08;11.70;;;4.33;;
20705;SDS011;10514;49.468;11.044;2023-02-21T07:54:34;10.97;;;5.00;;
20705;SDS011;10514;49.468;11.044;2023-02-21T07:57:00;8.07;;;4.43;;
20705;SDS011;10514;49.468;11.044;2023-02-21T07:59:25;10.38;;;5.20;;
20705;SDS011;10514;49.468;11.044;2023-02-21T08:01:51;9.70;;;4.20;;
20705;SDS011;10514;49.468;11.044;2023-02-21T08:04:17;11.15;;;5.00;;
20705;SDS011;10514;49.468;11.044;2023-02-21T08:06:45;9.60;;;4.75;;
20705;SDS011;10514;49.468;11.044;2023-02-21T08:09:11;6.57;;;4.22;;
20705;SDS011;10514;49.468;11.044;2023-02-21T08:11:37;6.05;;;3.50;;
20705;SDS011;10514;49.468;11.044;2023-02-21T08:14:04;9.77;;;3.88;;
20705;SDS011;10514;49.468;11.044;2023-02-21T08:16:30;9.23;;;4.00;;
20705;SDS011;10514;49.468;11.044;2023-02-21T08:18:56;10.27;;;3.38;;
20705;SDS011;10514;49.468;11.044;2023-02-21T08:21:22;6.50;;;3.60;;
20705;SDS011;10514;49.468;11.044;2023-02-21T08:23:51;9.80;;;3.80;;
20705;SDS011;10514;49.468;11.044;2023-02-21T08:26:18;10.25;;;3.97;;
20705;SDS011;10514;49.468;11.044;2023-02-21T08:28:43;6.85;;;4.13;;
20705;SDS011;10514;49.468;11.044;2023-02-21T08:31:09;7.95;;;3.97;;
20705;SDS011;10514;49.468;11.044;2023-02-21T08:33:35;6.30;;;3.95;;
20705;SDS011;10514;49.468;11.044;2023-02-21T08:36:01;7.40;;;3.45;;
20705;SDS011;10514;49.468;11.044;2023-02-21T08:38:27;6.70;;;3.92;;
20705;SDS011;10514;49.468;11.044;2023-02-21T08:40:53;7.50;;;3.35;;
20705;SDS011;10514;49.468;11.044;2023-02-21T08:43:19;6.80;;;3.75;;
20705;SDS011;10514;49.468;11.044;2023-02-21T08:45:46;5.97;;;3.72;;
20705;SDS011;10514;49.468;11.044;2023-02-21T08:48:13;9.77;;;4.00;;
20705;SDS011;10514;49.468;11.044;2023-02-21T08:50:38;6.45;;;3.85;;
20705;SDS011;10514;49.468;11.044;2023-02-21T08:53:04;7.10;;;4.00;;
20705;SDS011;10514;49.468;11.044;2023-02-21T08:55:30;6.13;;;3.67;;
20705;SDS011;10514;49.468;11.044;2023-02-21T08:57:56;7.30;;;3.85;;
20705;SDS011;10514;49.468;11.044;2023-02-21T09:00:22;7.93;;;4.38;;
20705;SDS011;10514;49.468;11.044;2023-02-21T09:02:51;8.48;;;4.32;;
20705;SDS011;10514;49.468;11.044;2023-02-21T09:05:18;10.00;;;3.67;;
20705;SDS011;10514;49.468;11.044;2023-02-21T09:07:48;10.45;;;4.03;;
20705;SDS011;10514;49.468;11.044;2023-02-21T09:10:14;7.45;;;3.67;;
20705;SDS011;10514;49.468;11.044;2023-02-21T09:12:40;9.55;;;4.80;;
20705;SDS011;10514;49.468;11.044;2023-02-21T09:15:06;7.95;;;3.63;;
20705;SDS011;10514;49.468;11.044;2023-02-21T09:17:33;8.18;;;4.18;;
20705;SDS011;10514;49.468;11.044;2023-02-21T09:20:00;6.60;;;3.55;;
20705;SDS011;10514;49.468;11.044;2023-02-21T09:22:30;10.85;;;4.22;;
20705;SDS011;10514;49.468;11.044;2023-02-21T09:24:57;9.13;;;3.63;;
20705;SDS011;10514;49.468;11.044;2023-02-21T09:27:23;6.07;;;3.70;;
20705;SDS011;10514;49.468;11.044;2023-02-21T09:30:02;13.75;;;3.65;;
20705;SDS011;10514;49.468;11.044;2023-02-21T09:32:28;8.93;;;3.85;;
20705;SDS011;10514;49.468;11.044;2023-02-21T09:34:54;8.63;;;4.07;;
20705;SDS011;10514;49.468;11.044;2023-02-21T09:37:20;10.35;;;3.90;;
20705;SDS011;10514;49.468;11.044;2023-02-21T09:39:46;6.50;;;3.50;;
20705;SDS011;10514;49.468;11.044;2023-02-21T09:42:14;6.55;;;3.25;;
20705;SDS011;10514;49.468;11.044;2023-02-21T09:44:42;4.57;;;3.00;;
20705;SDS011;10514;49.468;11.044;2023-02-21T09:47:09;5.93;;;4.18;;
20705;SDS011;10514;49.468;11.044;2023-02-21T09:49:39;5.75;;;3.35;;
20705;SDS011;10514;49.468;11.044;2023-02-21T09:52:06;11.10;;;4.30;;
20705;SDS011;10514;49.468;11.044;2023-02-21T09:54:45;8.60;;;3.45;;
20705;SDS011;10514;49.468;11.044;2023-02-21T09:57:15;6.55;;;3.50;;
20705;SDS011;10514;49.468;11.044;2023-02-21T09:59:42;7.32;;;3.80;;
20705;SDS011;10514;49.468;11.044;2023-02-21T10:03:13;8.25;;;3.15;;
20705;SDS011;10514;49.468;11.044;2023-02-21T10:05:20;5.55;;;3.47;;
20705;SDS011;10514;49.468;11.044;2023-02-21T10:08:01;7.93;;;3.67;;
20705;SDS011;10514;49.468;11.044;2023-02-21T10:10:31;6.35;;;3.55;;
20705;SDS011;10514;49.468;11.044;2023-02-21T10:13:04;8.77;;;3.70;;
20705;SDS011;10514;49.468;11.044;2023-02-21T10:18:37;7.88;;;3.35;;
20705;SDS011;10514;49.468;11.044;2023-02-21T10:21:10;4.43;;;3.28;;
20705;SDS011;10514;49.468;11.044;2023-02-21T10:23:37;6.95;;;3.17;;
20705;SDS011;10514;49.468;11.044;2023-02-21T10:26:09;7.20;;;4.47;;
20705;SDS011;10514;49.468;11.044;2023-02-21T10:28:36;6.35;;;3.17;;
20705;SDS011;10514;49.468;11.044;2023-02-21T10:31:13;7.35;;;3.45;;
20705;SDS011;10514;49.468;11.044;2023-02-21T10:33:41;7.65;;;2.58;;
20705;SDS011;10514;49.468;11.044;2023-02-21T10:36:11;5.93;;;3.05;;
20705;SDS011;10514;49.468;11.044;2023-02-21T10:38:43;4.03;;;2.38;;
20705;SDS011;10514;49.468;11.044;2023-02-21T10:41:11;5.35;;;2.83;;
20705;SDS011;10514;49.468;11.044;2023-02-21T10:43:45;7.75;;;3.20;;
20705;SDS011;10514;49.468;11.044;2023-02-21T10:48:45;7.43;;;3.15;;
20705;SDS011;10514;49.468;11.044;2023-02-21T10:51:13;5.65;;;3.33;;
20705;SDS011;10514;49.468;11.044;2023-02-21T10:53:41;4.88;;;3.13;;
20705;SDS011;10514;49.468;11.044;2023-02-21T10:56:11;6.25;;;2.95;;
20705;SDS011;10514;49.468;11.044;2023-02-21T10:58:43;4.97;;;3.17;;
20705;SDS011;10514;49.468;11.044;2023-02-21T11:01:14;5.30;;;2.95;;
20705;SDS011;10514;49.468;11.044;2023-02-21T11:03:48;4.00;;;2.33;;
20705;SDS011;10514;49.468;11.044;2023-02-21T11:06:21;4.90;;;2.47;;
20705;SDS011;10514;49.468;11.044;2023-02-21T11:08:49;5.22;;;2.97;;
20705;SDS011;10514;49.468;11.044;2023-02-21T11:11:15;3.92;;;2.67;;
20705;SDS011;10514;49.468;11.044;2023-02-21T11:13:41;4.75;;;2.42;;
20705;SDS011;10514;49.468;11.044;2023-02-21T11:16:15;4.22;;;2.67;;
20705;SDS011;10514;49.468;11.044;2023-02-21T11:18:41;4.57;;;2.63;;
20705;SDS011;10514;49.468;11.044;2023-02-21T11:21:14;3.42;;;2.17;;
20705;SDS011;10514;49.468;11.044;2023-02-21T11:23:44;5.05;;;2.55;;
20705;SDS011;10514;49.468;11.044;2023-02-21T11:26:11;4.57;;;2.42;;
20705;SDS011;10514;49.468;11.044;2023-02-21T11:28:38;3.00;;;2.25;;
20705;SDS011;10514;49.468;11.044;2023-02-21T11:33:40;3.20;;;1.95;;
20705;SDS011;10514;49.468;11.044;2023-02-21T11:36:13;5.30;;;2.40;;
20705;SDS011;10514;49.468;11.044;2023-02-21T11:41:21;5.97;;;2.40;;
20705;SDS011;10514;49.468;11.044;2023-02-21T11:43:48;2.83;;;1.60;;
20705;SDS011;10514;49.468;11.044;2023-02-21T11:48:54;4.97;;;2.15;;
20705;SDS011;10514;49.468;11.044;2023-02-21T11:51:26;4.00;;;1.75;;
20705;SDS011;10514;49.468;11.044;2023-02-21T11:53:54;3.58;;;2.00;;
20705;SDS011;10514;49.468;11.044;2023-02-21T11:56:25;3.10;;;1.52;;
20705;SDS011;10514;49.468;11.044;2023-02-21T12:01:45;2.83;;;1.25;;
20705;SDS011;10514;49.468;11.044;2023-02-21T12:07:01;1.42;;;1.02;;
20705;SDS011;10514;49.468;11.044;2023-02-21T12:09:28;4.75;;;1.27;;
20705;SDS011;10514;49.468;11.044;2023-02-21T12:14:47;1.80;;;1.10;;
20705;SDS011;10514;49.468;11.044;2023-02-21T12:20:02;2.13;;;1.10;;
20705;SDS011;10514;49.468;11.044;2023-02-21T12:22:40;2.47;;;1.20;;
20705;SDS011;10514;49.468;11.044;2023-02-21T12:25:15;21.55;;;2.40;;
20705;SDS011;10514;49.468;11.044;2023-02-21T12:35:43;1.45;;;0.98;;
20705;SDS011;10514;49.468;11.044;2023-02-21T12:40:43;1.50;;;0.88;;
20705;SDS011;10514;49.468;11.044;2023-02-21T12:43:23;2.53;;;1.10;;
20705;SDS011;10514;49.468;11.044;2023-02-21T12:45:53;1.48;;;0.98;;
20705;SDS011;10514;49.468;11.044;2023-02-21T12:51:13;1.30;;;0.90;;
20705;SDS011;10514;49.468;11.044;2023-02-21T12:56:50;2.40;;;0.90;;
20705;SDS011;10514;49.468;11.044;2023-02-21T12:59:29;2.40;;;1.00;;
20705;SDS011;10514;49.468;11.044;2023-02-21T13:02:18;1.85;;;0.73;;
20705;SDS011;10514;49.468;11.044;2023-02-21T13:07:20;1.00;;;0.68;;
20705;SDS011;10514;49.468;11.044;2023-02-21T13:09:54;2.00;;;0.60;;
20705;SDS011;10514;49.468;11.044;2023-02-21T13:15:23;2.67;;;0.75;;
20705;SDS011;10514;49.468;11.044;2023-02-21T13:17:59;0.65;;;0.47;;
20705;SDS011;10514;49.468;11.044;2023-02-21T13:20:43;1.35;;;0.70;;
20705;SDS011;10514;49.468;11.044;2023-02-21T13:26:32;1.95;;;0.60;;
20705;SDS011;10514;49.468;11.044;2023-02-21T13:29:22;1.10;;;0.73;;
20705;SDS011;10514;49.468;11.044;2023-02-21T13:32:05;0.73;;;0.60;;
20705;SDS011;10514;49.468;11.044;2023-02-21T13:34:37;2.83;;;0.63;;
20705;SDS011;10514;49.468;11.044;2023-02-21T13:37:07;0.60;;;0.50;;
20705;SDS011;10514;49.468;11.044;2023-02-21T13:39:43;0.55;;;0.40;;
20705;SDS011;10514;49.468;11.044;2023-02-21T13:42:16;0.77;;;0.50;;
20705;SDS011;10514;49.468;11.044;2023-02-21T13:44:45;3.70;;;0.43;;
20705;SDS011;10514;49.468;11.044;2023-02-21T13:47:17;0.63;;;0.50;;
20705;SDS011;10514;49.468;11.044;2023-02-21T13:49:46;1.02;;;0.63;;
20705;SDS011;10514;49.468;11.044;2023-02-21T13:57:41;0.68;;;0.57;;
20705;SDS011;10514;49.468;11.044;2023-02-21T14:02:54;2.08;;;0.47;;
20705;SDS011;10514;49.468;11.044;2023-02-21T14:05:20;1.33;;;0.50;;
20705;SDS011;10514;49.468;11.044;2023-02-21T14:10:25;0.43;;;0.40;;
20705;SDS011;10514;49.468;11.044;2023-02-21T14:13:07;1.23;;;0.63;;
20705;SDS011;10514;49.468;11.044;2023-02-21T14:15:55;0.35;;;0.35;;
20705;SDS011;10514;49.468;11.044;2023-02-21T14:19:05;0.68;;;0.50;;
20705;SDS011;10514;49.468;11.044;2023-02-21T14:24:12;0.47;;;0.47;;
20705;SDS011;10514;49.468;11.044;2023-02-21T14:29:42;0.50;;;0.40;;
20705;SDS011;10514;49.468;11.044;2023-02-21T14:34:41;1.08;;;0.50;;
20705;SDS011;10514;49.468;11.044;2023-02-21T14:37:34;1.33;;;0.40;;
20705;SDS011;10514;49.468;11.044;2023-02-21T14:59:14;0.80;;;0.50;;
20705;SDS011;10514;49.468;11.044;2023-02-21T15:04:40;0.80;;;0.70;;
20705;SDS011;10514;49.468;11.044;2023-02-21T15:10:05;1.58;;;0.55;;
20705;SDS011;10514;49.468;11.044;2023-02-21T15:12:38;1.90;;;0.60;;
20705;SDS011;10514;49.468;11.044;2023-02-21T15:15:14;0.68;;;0.40;;
20705;SDS011;10514;49.468;11.044;2023-02-21T15:23:35;2.10;;;0.50;;
20705;SDS011;10514;49.468;11.044;2023-02-21T15:29:11;3.00;;;0.70;;
20705;SDS011;10514;49.468;11.044;2023-02-21T15:31:40;3.58;;;0.65;;
20705;SDS011;10514;49.468;11.044;2023-02-21T15:34:18;1.50;;;0.60;;
20705;SDS011;10514;49.468;11.044;2023-02-21T15:36:44;2.20;;;0.75;;
20705;SDS011;10514;49.468;11.044;2023-02-21T15:39:18;1.58;;;0.80;;
20705;SDS011;10514;49.468;11.044;2023-02-21T15:42:06;1.38;;;0.60;;
20705;SDS011;10514;49.468;11.044;2023-02-21T15:44:35;2.17;;;0.90;;
20705;SDS011;10514;49.468;11.044;2023-02-21T15:47:14;1.63;;;0.82;;
20705;SDS011;10514;49.468;11.044;2023-02-21T15:49:53;3.42;;;0.82;;
20705;SDS011;10514;49.468;11.044;2023-02-21T15:52:33;1.85;;;0.98;;
20705;SDS011;10514;49.468;11.044;2023-02-21T16:00:24;0.70;;;0.50;;
20705;SDS011;10514;49.468;11.044;2023-02-21T16:02:51;1.95;;;0.68;;
20705;SDS011;10514;49.468;11.044;2023-02-21T16:05:24;1.05;;;0.55;;
20705;SDS011;10514;49.468;11.044;2023-02-21T16:08:00;2.50;;;0.65;;
20705;SDS011;10514;49.468;11.044;2023-02-21T16:10:28;3.13;;;0.70;;
20705;SDS011;10514;49.468;11.044;2023-02-21T16:12:55;0.63;;;0.60;;
20705;SDS011;10514;49.468;11.044;2023-02-21T16:15:26;3.58;;;1.08;;
20705;SDS011;10514;49.468;11.044;2023-02-21T16:17:58;1.70;;;0.90;;
20705;SDS011;10514;49.468;11.044;2023-02-21T16:28:18;1.05;;;0.70;;
20705;SDS011;10514;49.468;11.044;2023-02-21T16:30:44;1.58;;;1.00;;
20705;SDS011;10514;49.468;11.044;2023-02-21T16:33:10;2.10;;;1.10;;
20705;SDS011;10514;49.468;11.044;2023-02-21T16:35:38;3.00;;;1.83;;
20705;SDS011;10514;49.468;11.044;2023-02-21T16:38:03;4.38;;;2.45;;
20705;SDS011;10514;49.468;11.044;2023-02-21T16:40:32;6.72;;;2.80;;
20705;SDS011;10514;49.468;11.044;2023-02-21T16:42:59;6.15;;;2.08;;
20705;SDS011;10514;49.468;11.044;2023-02-21T16:45:26;2.97;;;1.83;;
20705;SDS011;10514;49.468;11.044;2023-02-21T16:47:59;5.55;;;1.98;;
20705;SDS011;10514;49.468;11.044;2023-02-21T16:50:32;5.38;;;2.63;;
20705;SDS011;10514;49.468;11.044;2023-02-21T16:53:00;4.10;;;2.42;;
20705;SDS011;10514;49.468;11.044;2023-02-21T16:55:26;4.32;;;2.45;;
20705;SDS011;10514;49.468;11.044;2023-02-21T16:57:54;4.53;;;2.35;;
20705;SDS011;10514;49.468;11.044;2023-02-21T17:00:22;4.95;;;2.00;;
20705;SDS011;10514;49.468;11.044;2023-02-21T17:02:48;3.30;;;2.20;;
20705;SDS011;10514;49.468;11.044;2023-02-21T17:05:15;5.93;;;1.77;;
20705;SDS011;10514;49.468;11.044;2023-02-21T17:07:41;3.40;;;1.80;;
20705;SDS011;10514;49.468;11.044;2023-02-21T17:10:08;7.95;;;1.90;;
20705;SDS011;10514;49.468;11.044;2023-02-21T17:12:34;2.63;;;1.70;;
20705;SDS011;10514;49.468;11.044;2023-02-21T17:14:59;4.35;;;1.70;;
20705;SDS011;10514;49.468;11.044;2023-02-21T17:17:25;6.25;;;2.05;;
20705;SDS011;10514;49.468;11.044;2023-02-21T17:19:51;4.03;;;1.98;;